EZY224 LEBL-LEPA
Flight info
| Callsign | EZY224 |
|---|---|
| Flight time | 0h 27m |
| Altitude | 17000 |
| Route | LARPA N859 TOLSO |
| Aircraft | A320/M-SDE3FGHIRWY/LB1 |
Departure
| Time | 2026-05-05 15:40 |
|---|---|
| Airport | Josep Tarradellas Barcelona-El Prat Airport (LEBL) |
Arrival
| Time | 2026-05-05 16:08 |
|---|---|
| Airport | Palma de Mallorca Airport (LEPA) |
| Time | Latitude | Longitude | Altitude | Speed | Heading |
|---|---|---|---|---|---|
| 2026-05-05 15:16 | 41.28941 | 2.07782 | 18 ft | 0 kts | 335° |
| 2026-05-05 15:31 | 41.28924 | 2.07793 | 18 ft | 4 kts | 332° |
| 2026-05-05 15:31 | 41.28901 | 2.07809 | 20 ft | 3 kts | 330° |
| 2026-05-05 15:31 | 41.28883 | 2.07825 | 19 ft | 4 kts | 305° |
| 2026-05-05 15:32 | 41.28872 | 2.07857 | 18 ft | 4 kts | 283° |
| 2026-05-05 15:32 | 41.28870 | 2.07872 | 19 ft | 1 kts | 282° |
| 2026-05-05 15:32 | 41.28869 | 2.07873 | 19 ft | 0 kts | 282° |
| 2026-05-05 15:35 | 41.28854 | 2.07853 | 20 ft | 6 kts | 204° |
| 2026-05-05 15:35 | 41.28798 | 2.07880 | 20 ft | 10 kts | 154° |
| 2026-05-05 15:35 | 41.28724 | 2.07925 | 18 ft | 13 kts | 156° |
| 2026-05-05 15:36 | 41.28638 | 2.07975 | 20 ft | 12 kts | 153° |
| 2026-05-05 15:36 | 41.28637 | 2.08073 | 19 ft | 12 kts | 64° |
| 2026-05-05 15:36 | 41.28680 | 2.08193 | 19 ft | 16 kts | 66° |
| 2026-05-05 15:36 | 41.28732 | 2.08350 | 18 ft | 20 kts | 66° |
| 2026-05-05 15:37 | 41.28796 | 2.08539 | 18 ft | 25 kts | 65° |
| 2026-05-05 15:37 | 41.28872 | 2.08760 | 18 ft | 28 kts | 64° |
| 2026-05-05 15:37 | 41.28957 | 2.09005 | 18 ft | 31 kts | 66° |
| 2026-05-05 15:37 | 41.29047 | 2.09273 | 18 ft | 33 kts | 65° |
| 2026-05-05 15:38 | 41.29142 | 2.09550 | 18 ft | 33 kts | 65° |
| 2026-05-05 15:38 | 41.29206 | 2.09736 | 18 ft | 22 kts | 65° |
| 2026-05-05 15:38 | 41.29260 | 2.09892 | 18 ft | 15 kts | 65° |
| 2026-05-05 15:38 | 41.29268 | 2.10040 | 17 ft | 19 kts | 111° |
| 2026-05-05 15:39 | 41.29241 | 2.10207 | 15 ft | 18 kts | 72° |
| 2026-05-05 15:39 | 41.29210 | 2.10279 | 14 ft | 12 kts | 207° |
| 2026-05-05 15:39 | 41.29174 | 2.10185 | 14 ft | 15 kts | 245° |
| 2026-05-05 15:39 | 41.29045 | 2.09813 | 19 ft | 80 kts | 245° |
| 2026-05-05 15:40 | 41.28724 | 2.08880 | 20 ft | 139 kts | 245° |
| 2026-05-05 15:40 | 41.28272 | 2.07541 | 218 ft | 168 kts | 244° |
| 2026-05-05 15:40 | 41.27614 | 2.06356 | 905 ft | 161 kts | 207° |
| 2026-05-05 15:40 | 41.26521 | 2.06030 | 1481 ft | 169 kts | 184° |
| 2026-05-05 15:41 | 41.25285 | 2.06019 | 1908 ft | 185 kts | 181° |
| 2026-05-05 15:41 | 41.23948 | 2.06037 | 2319 ft | 200 kts | 181° |
| 2026-05-05 15:41 | 41.22464 | 2.06026 | 2645 ft | 223 kts | 182° |
| 2026-05-05 15:41 | 41.20931 | 2.05981 | 3550 ft | 218 kts | 184° |
| 2026-05-05 15:42 | 41.19421 | 2.05881 | 4429 ft | 216 kts | 186° |
| 2026-05-05 15:42 | 41.17919 | 2.05729 | 5240 ft | 217 kts | 187° |
| 2026-05-05 15:42 | 41.16438 | 2.05276 | 5863 ft | 226 kts | 206° |
| 2026-05-05 15:42 | 41.14982 | 2.04340 | 6426 ft | 237 kts | 208° |
| 2026-05-05 15:43 | 41.13534 | 2.03289 | 7227 ft | 238 kts | 211° |
| 2026-05-05 15:43 | 41.12094 | 2.02177 | 8056 ft | 240 kts | 212° |
| 2026-05-05 15:43 | 41.10582 | 2.01188 | 8762 ft | 251 kts | 198° |
| 2026-05-05 15:43 | 41.08777 | 2.01103 | 9214 ft | 275 kts | 169° |
| 2026-05-05 15:44 | 41.06996 | 2.02169 | 9938 ft | 286 kts | 156° |
| 2026-05-05 15:44 | 41.05206 | 2.03465 | 10394 ft | 303 kts | 155° |
| 2026-05-05 15:44 | 41.03303 | 2.04892 | 10611 ft | 327 kts | 154° |
| 2026-05-05 15:44 | 41.01267 | 2.06432 | 10906 ft | 345 kts | 154° |
| 2026-05-05 15:45 | 40.99156 | 2.08030 | 11507 ft | 351 kts | 154° |
| 2026-05-05 15:45 | 40.97023 | 2.09636 | 12227 ft | 355 kts | 155° |
| 2026-05-05 15:45 | 40.94864 | 2.11245 | 12934 ft | 357 kts | 155° |
| 2026-05-05 15:45 | 40.92680 | 2.12862 | 13664 ft | 360 kts | 155° |
| 2026-05-05 15:46 | 40.90484 | 2.14479 | 14293 ft | 363 kts | 156° |
| 2026-05-05 15:46 | 40.88295 | 2.16087 | 14859 ft | 367 kts | 156° |
| 2026-05-05 15:46 | 40.88268 | 2.16106 | 14867 ft | 367 kts | 156° |
| 2026-05-05 15:47 | 40.86488 | 2.17413 | 15328 ft | 370 kts | 157° |
| 2026-05-05 15:47 | 40.84992 | 2.18511 | 15715 ft | 373 kts | 157° |
| 2026-05-05 15:47 | 40.81942 | 2.20750 | 16493 ft | 378 kts | 157° |
| 2026-05-05 15:47 | 40.79636 | 2.22443 | 16822 ft | 380 kts | 157° |
| 2026-05-05 15:48 | 40.77307 | 2.24148 | 16891 ft | 391 kts | 157° |
| 2026-05-05 15:48 | 40.74882 | 2.25910 | 16894 ft | 403 kts | 157° |
| 2026-05-05 15:48 | 40.72407 | 2.27715 | 16892 ft | 406 kts | 157° |
| 2026-05-05 15:48 | 40.69933 | 2.29529 | 16874 ft | 407 kts | 157° |
| 2026-05-05 15:49 | 40.67458 | 2.31343 | 16891 ft | 407 kts | 157° |
| 2026-05-05 15:49 | 40.64975 | 2.33159 | 16895 ft | 407 kts | 157° |
| 2026-05-05 15:49 | 40.62449 | 2.34793 | 16889 ft | 401 kts | 165° |
| 2026-05-05 15:49 | 40.59808 | 2.35947 | 16896 ft | 400 kts | 166° |
| 2026-05-05 15:50 | 40.57355 | 2.37770 | 16895 ft | 414 kts | 146° |
| 2026-05-05 15:50 | 40.55225 | 2.40346 | 16894 ft | 417 kts | 143° |
| 2026-05-05 15:50 | 40.53115 | 2.42913 | 16900 ft | 417 kts | 143° |
| 2026-05-05 15:50 | 40.50942 | 2.45499 | 16904 ft | 417 kts | 144° |
| 2026-05-05 15:51 | 40.48800 | 2.47988 | 16903 ft | 416 kts | 144° |
| 2026-05-05 15:51 | 40.46619 | 2.50481 | 16902 ft | 416 kts | 145° |
| 2026-05-05 15:51 | 40.44428 | 2.52964 | 16898 ft | 416 kts | 145° |
| 2026-05-05 15:51 | 40.42231 | 2.55450 | 16899 ft | 416 kts | 145° |
| 2026-05-05 15:52 | 40.41870 | 2.55859 | 16895 ft | 416 kts | 145° |
| 2026-05-05 15:52 | 40.40157 | 2.57803 | 16896 ft | 417 kts | 145° |
| 2026-05-05 15:52 | 40.37972 | 2.60289 | 16898 ft | 417 kts | 145° |
| 2026-05-05 15:52 | 40.35783 | 2.62785 | 16895 ft | 417 kts | 145° |
| 2026-05-05 15:53 | 40.33602 | 2.65276 | 16901 ft | 417 kts | 145° |
| 2026-05-05 15:53 | 40.31414 | 2.67778 | 16881 ft | 417 kts | 144° |
| 2026-05-05 15:53 | 40.29225 | 2.70274 | 16879 ft | 416 kts | 145° |
| 2026-05-05 15:53 | 40.27084 | 2.72716 | 16893 ft | 399 kts | 145° |
| 2026-05-05 15:54 | 40.25022 | 2.75071 | 16563 ft | 389 kts | 145° |
| 2026-05-05 15:54 | 40.22955 | 2.77420 | 15282 ft | 398 kts | 144° |
| 2026-05-05 15:54 | 40.20873 | 2.79771 | 14623 ft | 390 kts | 144° |
| 2026-05-05 15:54 | 40.18844 | 2.82064 | 14151 ft | 381 kts | 144° |
| 2026-05-05 15:55 | 40.16849 | 2.84316 | 13621 ft | 377 kts | 144° |
| 2026-05-05 15:55 | 40.14884 | 2.86538 | 13020 ft | 371 kts | 144° |
| 2026-05-05 15:55 | 40.12947 | 2.88729 | 12487 ft | 365 kts | 144° |
| 2026-05-05 15:55 | 40.11037 | 2.90883 | 11938 ft | 360 kts | 143° |
| 2026-05-05 15:56 | 40.09176 | 2.92979 | 11404 ft | 355 kts | 143° |
| 2026-05-05 15:56 | 40.07296 | 2.95094 | 10860 ft | 349 kts | 143° |
| 2026-05-05 15:56 | 40.05510 | 2.97106 | 10627 ft | 333 kts | 143° |
| 2026-05-05 15:56 | 40.03822 | 2.99019 | 10506 ft | 309 kts | 143° |
| 2026-05-05 15:57 | 40.02229 | 3.00825 | 10383 ft | 299 kts | 143° |
| 2026-05-05 15:57 | 40.00674 | 3.02577 | 10158 ft | 292 kts | 144° |
| 2026-05-05 15:57 | 39.99103 | 3.04248 | 9935 ft | 286 kts | 153° |
| 2026-05-05 15:57 | 39.97285 | 3.05164 | 9683 ft | 278 kts | 170° |
| 2026-05-05 15:58 | 39.95394 | 3.05702 | 9413 ft | 280 kts | 172° |
| 2026-05-05 15:58 | 39.93510 | 3.06189 | 9155 ft | 279 kts | 175° |
| 2026-05-05 15:58 | 39.91592 | 3.06482 | 8899 ft | 277 kts | 178° |
| 2026-05-05 15:58 | 39.89649 | 3.06714 | 8515 ft | 275 kts | 179° |
| 2026-05-05 15:59 | 39.87766 | 3.06915 | 8119 ft | 274 kts | 179° |
| 2026-05-05 15:59 | 39.85864 | 3.07111 | 7717 ft | 273 kts | 179° |
| 2026-05-05 15:59 | 39.83980 | 3.07311 | 7323 ft | 272 kts | 179° |
| 2026-05-05 15:59 | 39.82102 | 3.07515 | 6930 ft | 270 kts | 178° |
| 2026-05-05 16:00 | 39.80230 | 3.07718 | 6545 ft | 270 kts | 179° |
| 2026-05-05 16:00 | 39.78354 | 3.07922 | 6154 ft | 269 kts | 178° |
| 2026-05-05 16:00 | 39.76498 | 3.07954 | 5733 ft | 264 kts | 193° |
| 2026-05-05 16:00 | 39.74742 | 3.07298 | 5339 ft | 262 kts | 201° |
| 2026-05-05 16:01 | 39.73019 | 3.06521 | 4939 ft | 262 kts | 202° |
| 2026-05-05 16:01 | 39.71308 | 3.05730 | 4419 ft | 262 kts | 202° |
| 2026-05-05 16:01 | 39.69650 | 3.04818 | 3807 ft | 254 kts | 216° |
| 2026-05-05 16:01 | 39.68387 | 3.03369 | 3580 ft | 234 kts | 233° |
| 2026-05-05 16:02 | 39.67531 | 3.01667 | 3354 ft | 219 kts | 239° |
| 2026-05-05 16:02 | 39.66755 | 3.00010 | 3173 ft | 207 kts | 240° |
| 2026-05-05 16:02 | 39.66036 | 2.98476 | 3172 ft | 196 kts | 240° |
| 2026-05-05 16:02 | 39.65365 | 2.97046 | 3195 ft | 175 kts | 239° |
| 2026-05-05 16:03 | 39.64760 | 2.95757 | 3141 ft | 159 kts | 239° |
| 2026-05-05 16:03 | 39.64204 | 2.94572 | 2995 ft | 148 kts | 240° |
| 2026-05-05 16:03 | 39.63693 | 2.93484 | 2885 ft | 138 kts | 240° |
| 2026-05-05 16:03 | 39.63188 | 2.92407 | 2797 ft | 140 kts | 239° |
| 2026-05-05 16:04 | 39.62679 | 2.91324 | 2671 ft | 140 kts | 239° |
| 2026-05-05 16:04 | 39.62176 | 2.90250 | 2476 ft | 140 kts | 239° |
| 2026-05-05 16:04 | 39.61667 | 2.89181 | 2339 ft | 138 kts | 239° |
| 2026-05-05 16:04 | 39.61174 | 2.88138 | 2153 ft | 136 kts | 239° |
| 2026-05-05 16:05 | 39.60677 | 2.87065 | 1940 ft | 137 kts | 238° |
| 2026-05-05 16:05 | 39.60185 | 2.86023 | 1808 ft | 137 kts | 239° |
| 2026-05-05 16:05 | 39.59685 | 2.84974 | 1620 ft | 136 kts | 238° |
| 2026-05-05 16:05 | 39.59181 | 2.83910 | 1418 ft | 135 kts | 238° |
| 2026-05-05 16:06 | 39.58681 | 2.82841 | 1265 ft | 139 kts | 238° |
| 2026-05-05 16:06 | 39.58186 | 2.81788 | 1038 ft | 135 kts | 237° |
| 2026-05-05 16:06 | 39.57697 | 2.80752 | 859 ft | 136 kts | 237° |
| 2026-05-05 16:06 | 39.57213 | 2.79708 | 671 ft | 135 kts | 238° |
| 2026-05-05 16:07 | 39.56719 | 2.78661 | 516 ft | 136 kts | 238° |
| 2026-05-05 16:07 | 39.56232 | 2.77627 | 298 ft | 136 kts | 238° |
| 2026-05-05 16:07 | 39.55751 | 2.76611 | 139 ft | 131 kts | 238° |
| 2026-05-05 16:07 | 39.55278 | 2.75611 | 44 ft | 123 kts | 237° |
| 2026-05-05 16:08 | 39.54905 | 2.74819 | 38 ft | 79 kts | 238° |
| 2026-05-05 16:08 | 39.54705 | 2.74395 | 38 ft | 39 kts | 238° |
| 2026-05-05 16:08 | 39.54592 | 2.74155 | 38 ft | 25 kts | 240° |
| 2026-05-05 16:08 | 39.54555 | 2.73973 | 38 ft | 5 kts | 264° |
| 2026-05-05 16:09 | 39.54552 | 2.73937 | 38 ft | 6 kts | 266° |
| 2026-05-05 16:09 | 39.54550 | 2.73872 | 38 ft | 8 kts | 271° |
| 2026-05-05 16:09 | 39.54550 | 2.73838 | 38 ft | 0 kts | 271° |
| 2026-05-05 16:10 | 39.54551 | 2.73816 | 38 ft | 4 kts | 271° |
| 2026-05-05 16:10 | 39.54551 | 2.73796 | 38 ft | 3 kts | 271° |
| 2026-05-05 16:10 | 39.54551 | 2.73776 | 38 ft | 2 kts | 271° |
| 2026-05-05 16:10 | 39.54551 | 2.73724 | 38 ft | 10 kts | 268° |
| 2026-05-05 16:11 | 39.54543 | 2.73613 | 38 ft | 14 kts | 256° |
| 2026-05-05 16:11 | 39.54385 | 2.73251 | 38 ft | 8 kts | 275° |
| 2026-05-05 16:12 | 39.54425 | 2.73209 | 38 ft | 7 kts | 0° |
| 2026-05-05 16:12 | 39.54492 | 2.73236 | 38 ft | 4 kts | 342° |
| 2026-05-05 16:13 | 39.54514 | 2.73228 | 38 ft | 0 kts | 346° |